Airfield :
LOGIN :

Register | Disclaimer

   EN    FR    IT 

 










Legend :    VFR   Marginal VFR   IFR   Intensive IFR   Very Intensive IFR
Visi :
Ceiling :
>= 8 km
>= 3000ft
5 to 8 km
1000 to 3000 ft
1500m to 5 km
500 to 1000 ft
800 to 1500m
200 to 500 ft
< 800m
< 200 ft
Symbols :   Thunderstorms  Fog  Heavy snow  Heavy precipitations  Wind > 20 kt
SIGMETs :     Misc.  Thunderstorms  Icing  Turbulence  Mountain Waves  Volcanic Ashes






- Airport Elevation : 218 ft
- IATA code : LBG


LFPB - Paris / Le Bourget

CURRENT METAR :
  • 280500Z AUTO 23013KT 200V260 CAVOK 11/09 Q1009 NOSIG

EXPIRED METARs :
  • 280430Z AUTO 23010KT CAVOK 11/10 Q1008 NOSIG
  • 280400Z AUTO 23010KT 9999 SCT017 SCT023 12/10 Q1008 NOSIG
  • 280330Z AUTO 23009KT 9999 FEW026 BKN031 BKN092 12/10 Q1007 NOSIG
  • 280300Z AUTO 23009KT 9999 SCT023 BKN032 BKN042 12/11 Q1008 NOSIG
  • 280230Z AUTO 23008KT 9999 FEW016 SCT066 BKN076 12/11 Q1007

TAF AMD TAF LFPB
Valid from the 28 at 02:00 until the 29 at 00:00 UTC


280237Z 2802/2824 22009KT 9999 BKN030
BECMG 2810/2812 22015G30KT
PROB40
TEMPO 2812/2815 4000 -SHRA SCT015TCU BKN070
PROB30
TEMPO 2813/2815 SCT015CB
ATIS : +33 1 48 62 43 92



MET'MAP, your aeronautical weather chart ! - Copyright ORBIFLY December 2007 - Disclaimer

ORBIFLY MET'MAP TEAM :

Programming & Development : Alexandra Zaïnal
Concept & original design : Baudouin d'Aumeries
Assistance for programming : Marc-Olivier Méhu
Technical & hardware support : Manuel Goepfert

Contact : metmap@orbifly.com




SOURCES & CREDITS :

   NOAA